sensor_id;sensor_type;location;lat;lon;timestamp;P1;durP1;ratioP1;P2;durP2;ratioP2
70312;SDS011;57723;51.698;5.344;2023-10-13T00:00:37;4.95;;;1.80;;
70312;SDS011;57723;51.698;5.344;2023-10-13T00:03:05;4.72;;;2.72;;
70312;SDS011;57723;51.698;5.344;2023-10-13T00:05:34;4.32;;;2.15;;
70312;SDS011;57723;51.698;5.344;2023-10-13T00:08:02;5.47;;;1.90;;
70312;SDS011;57723;51.698;5.344;2023-10-13T00:10:30;5.30;;;1.95;;
70312;SDS011;57723;51.698;5.344;2023-10-13T00:12:59;3.28;;;1.85;;
70312;SDS011;57723;51.698;5.344;2023-10-13T00:15:42;6.15;;;2.10;;
70312;SDS011;57723;51.698;5.344;2023-10-13T00:18:30;3.63;;;1.70;;
70312;SDS011;57723;51.698;5.344;2023-10-13T00:21:04;4.83;;;2.00;;
70312;SDS011;57723;51.698;5.344;2023-10-13T00:23:37;5.95;;;2.28;;
70312;SDS011;57723;51.698;5.344;2023-10-13T00:26:02;3.73;;;1.83;;
70312;SDS011;57723;51.698;5.344;2023-10-13T00:28:28;5.03;;;2.00;;
70312;SDS011;57723;51.698;5.344;2023-10-13T00:31:11;3.03;;;1.80;;
70312;SDS011;57723;51.698;5.344;2023-10-13T00:33:37;5.43;;;2.20;;
70312;SDS011;57723;51.698;5.344;2023-10-13T00:36:03;4.85;;;2.10;;
70312;SDS011;57723;51.698;5.344;2023-10-13T00:38:30;5.35;;;1.90;;
70312;SDS011;57723;51.698;5.344;2023-10-13T00:40:55;4.27;;;2.10;;
70312;SDS011;57723;51.698;5.344;2023-10-13T00:43:31;3.73;;;1.90;;
70312;SDS011;57723;51.698;5.344;2023-10-13T00:45:58;4.88;;;2.05;;
70312;SDS011;57723;51.698;5.344;2023-10-13T00:48:28;3.63;;;1.90;;
70312;SDS011;57723;51.698;5.344;2023-10-13T00:50:57;5.55;;;2.00;;
70312;SDS011;57723;51.698;5.344;2023-10-13T00:53:28;5.45;;;1.92;;
70312;SDS011;57723;51.698;5.344;2023-10-13T00:55:54;3.87;;;1.97;;
70312;SDS011;57723;51.698;5.344;2023-10-13T00:58:22;3.95;;;1.80;;
70312;SDS011;57723;51.698;5.344;2023-10-13T01:00:50;3.30;;;1.83;;
70312;SDS011;57723;51.698;5.344;2023-10-13T01:03:23;3.10;;;1.80;;
70312;SDS011;57723;51.698;5.344;2023-10-13T01:05:55;4.53;;;1.95;;
70312;SDS011;57723;51.698;5.344;2023-10-13T01:08:30;5.50;;;1.93;;
70312;SDS011;57723;51.698;5.344;2023-10-13T01:10:59;3.20;;;1.75;;
70312;SDS011;57723;51.698;5.344;2023-10-13T01:13:25;4.07;;;1.77;;
70312;SDS011;57723;51.698;5.344;2023-10-13T01:15:52;5.90;;;1.90;;
70312;SDS011;57723;51.698;5.344;2023-10-13T01:18:17;3.28;;;1.80;;
70312;SDS011;57723;51.698;5.344;2023-10-13T01:20:43;4.07;;;1.90;;
70312;SDS011;57723;51.698;5.344;2023-10-13T01:23:17;5.47;;;1.90;;
70312;SDS011;57723;51.698;5.344;2023-10-13T01:25:49;3.92;;;1.65;;
70312;SDS011;57723;51.698;5.344;2023-10-13T01:28:15;4.83;;;1.70;;
70312;SDS011;57723;51.698;5.344;2023-10-13T01:30:43;4.30;;;2.22;;
70312;SDS011;57723;51.698;5.344;2023-10-13T01:33:15;3.38;;;1.38;;
70312;SDS011;57723;51.698;5.344;2023-10-13T01:35:52;4.30;;;1.73;;
70312;SDS011;57723;51.698;5.344;2023-10-13T01:38:18;3.83;;;1.60;;
70312;SDS011;57723;51.698;5.344;2023-10-13T01:40:43;3.50;;;1.70;;
70312;SDS011;57723;51.698;5.344;2023-10-13T01:43:10;4.80;;;1.73;;
70312;SDS011;57723;51.698;5.344;2023-10-13T01:45:40;4.57;;;1.70;;
70312;SDS011;57723;51.698;5.344;2023-10-13T01:48:12;3.70;;;1.88;;
70312;SDS011;57723;51.698;5.344;2023-10-13T01:50:40;2.88;;;1.55;;
70312;SDS011;57723;51.698;5.344;2023-10-13T01:53:06;4.30;;;1.65;;
70312;SDS011;57723;51.698;5.344;2023-10-13T01:55:39;5.23;;;1.60;;
70312;SDS011;57723;51.698;5.344;2023-10-13T01:58:08;2.72;;;1.70;;
70312;SDS011;57723;51.698;5.344;2023-10-13T02:00:39;2.97;;;1.52;;
70312;SDS011;57723;51.698;5.344;2023-10-13T02:03:08;5.22;;;1.50;;
70312;SDS011;57723;51.698;5.344;2023-10-13T02:05:41;3.35;;;1.70;;
70312;SDS011;57723;51.698;5.344;2023-10-13T02:08:11;3.87;;;1.60;;
70312;SDS011;57723;51.698;5.344;2023-10-13T02:10:42;3.13;;;1.70;;
70312;SDS011;57723;51.698;5.344;2023-10-13T02:13:11;2.65;;;1.60;;
70312;SDS011;57723;51.698;5.344;2023-10-13T02:15:40;3.45;;;1.48;;
70312;SDS011;57723;51.698;5.344;2023-10-13T02:18:07;3.77;;;1.60;;
70312;SDS011;57723;51.698;5.344;2023-10-13T02:20:34;3.92;;;1.60;;
70312;SDS011;57723;51.698;5.344;2023-10-13T02:23:06;3.83;;;1.42;;
70312;SDS011;57723;51.698;5.344;2023-10-13T02:25:35;4.70;;;1.70;;
70312;SDS011;57723;51.698;5.344;2023-10-13T02:28:11;3.38;;;1.40;;
70312;SDS011;57723;51.698;5.344;2023-10-13T02:30:43;2.97;;;1.40;;
70312;SDS011;57723;51.698;5.344;2023-10-13T02:33:16;4.97;;;1.60;;
70312;SDS011;57723;51.698;5.344;2023-10-13T02:35:50;2.35;;;1.45;;
70312;SDS011;57723;51.698;5.344;2023-10-13T02:38:21;4.43;;;1.35;;
70312;SDS011;57723;51.698;5.344;2023-10-13T02:41:00;2.92;;;1.35;;
70312;SDS011;57723;51.698;5.344;2023-10-13T02:43:32;5.23;;;1.70;;
70312;SDS011;57723;51.698;5.344;2023-10-13T02:45:58;3.88;;;1.70;;
70312;SDS011;57723;51.698;5.344;2023-10-13T02:48:24;3.67;;;1.60;;
70312;SDS011;57723;51.698;5.344;2023-10-13T02:50:55;3.90;;;1.60;;
70312;SDS011;57723;51.698;5.344;2023-10-13T02:53:20;4.10;;;1.80;;
70312;SDS011;57723;51.698;5.344;2023-10-13T02:55:52;3.90;;;1.43;;
70312;SDS011;57723;51.698;5.344;2023-10-13T02:58:17;3.00;;;1.42;;
70312;SDS011;57723;51.698;5.344;2023-10-13T03:00:43;3.67;;;1.40;;
70312;SDS011;57723;51.698;5.344;2023-10-13T03:03:09;3.30;;;1.53;;
70312;SDS011;57723;51.698;5.344;2023-10-13T03:05:35;3.00;;;1.40;;
70312;SDS011;57723;51.698;5.344;2023-10-13T03:08:00;3.85;;;1.33;;
70312;SDS011;57723;51.698;5.344;2023-10-13T03:10:29;4.18;;;1.67;;
70312;SDS011;57723;51.698;5.344;2023-10-13T03:12:54;4.10;;;1.57;;
70312;SDS011;57723;51.698;5.344;2023-10-13T03:15:20;3.67;;;1.40;;
70312;SDS011;57723;51.698;5.344;2023-10-13T03:17:47;6.63;;;1.35;;
70312;SDS011;57723;51.698;5.344;2023-10-13T03:20:13;5.73;;;1.60;;
70312;SDS011;57723;51.698;5.344;2023-10-13T03:22:40;3.33;;;1.30;;
70312;SDS011;57723;51.698;5.344;2023-10-13T03:25:10;5.63;;;1.65;;
70312;SDS011;57723;51.698;5.344;2023-10-13T03:27:42;4.18;;;1.60;;
70312;SDS011;57723;51.698;5.344;2023-10-13T03:30:29;4.87;;;1.60;;
70312;SDS011;57723;51.698;5.344;2023-10-13T03:33:04;2.85;;;1.20;;
70312;SDS011;57723;51.698;5.344;2023-10-13T03:35:35;3.00;;;1.35;;
70312;SDS011;57723;51.698;5.344;2023-10-13T03:38:03;5.00;;;1.52;;
70312;SDS011;57723;51.698;5.344;2023-10-13T03:40:28;3.63;;;1.57;;
70312;SDS011;57723;51.698;5.344;2023-10-13T03:42:55;6.23;;;1.47;;
70312;SDS011;57723;51.698;5.344;2023-10-13T03:45:23;4.28;;;1.30;;
70312;SDS011;57723;51.698;5.344;2023-10-13T03:47:53;3.38;;;1.42;;
70312;SDS011;57723;51.698;5.344;2023-10-13T03:50:18;3.08;;;1.40;;
70312;SDS011;57723;51.698;5.344;2023-10-13T03:52:56;3.23;;;1.60;;
70312;SDS011;57723;51.698;5.344;2023-10-13T03:55:25;4.00;;;1.30;;
70312;SDS011;57723;51.698;5.344;2023-10-13T03:57:55;4.32;;;1.70;;
70312;SDS011;57723;51.698;5.344;2023-10-13T04:00:22;5.32;;;1.83;;
70312;SDS011;57723;51.698;5.344;2023-10-13T04:02:50;4.80;;;1.70;;
70312;SDS011;57723;51.698;5.344;2023-10-13T04:05:27;2.73;;;1.60;;
70312;SDS011;57723;51.698;5.344;2023-10-13T04:08:04;4.45;;;1.40;;
70312;SDS011;57723;51.698;5.344;2023-10-13T04:10:55;3.08;;;1.70;;
70312;SDS011;57723;51.698;5.344;2023-10-13T04:13:21;2.65;;;1.70;;
70312;SDS011;57723;51.698;5.344;2023-10-13T04:16:07;3.60;;;1.70;;
70312;SDS011;57723;51.698;5.344;2023-10-13T04:18:50;4.30;;;1.60;;
70312;SDS011;57723;51.698;5.344;2023-10-13T04:21:24;3.47;;;1.60;;
70312;SDS011;57723;51.698;5.344;2023-10-13T04:24:10;2.78;;;1.80;;
70312;SDS011;57723;51.698;5.344;2023-10-13T04:26:53;6.72;;;2.00;;
70312;SDS011;57723;51.698;5.344;2023-10-13T04:29:37;6.18;;;2.38;;
70312;SDS011;57723;51.698;5.344;2023-10-13T04:32:21;7.83;;;2.00;;
70312;SDS011;57723;51.698;5.344;2023-10-13T04:35:03;7.38;;;2.00;;
70312;SDS011;57723;51.698;5.344;2023-10-13T04:37:43;4.28;;;2.03;;
70312;SDS011;57723;51.698;5.344;2023-10-13T04:40:40;4.22;;;2.10;;
70312;SDS011;57723;51.698;5.344;2023-10-13T04:43:26;4.63;;;2.20;;
70312;SDS011;57723;51.698;5.344;2023-10-13T04:46:10;5.73;;;2.33;;
70312;SDS011;57723;51.698;5.344;2023-10-13T04:49:03;4.75;;;2.00;;
70312;SDS011;57723;51.698;5.344;2023-10-13T04:51:35;5.07;;;2.15;;
70312;SDS011;57723;51.698;5.344;2023-10-13T04:54:23;6.07;;;2.60;;
70312;SDS011;57723;51.698;5.344;2023-10-13T04:56:55;9.30;;;2.30;;
70312;SDS011;57723;51.698;5.344;2023-10-13T04:59:38;4.23;;;2.20;;
70312;SDS011;57723;51.698;5.344;2023-10-13T05:02:25;6.07;;;2.03;;
70312;SDS011;57723;51.698;5.344;2023-10-13T05:05:16;10.43;;;2.58;;
70312;SDS011;57723;51.698;5.344;2023-10-13T05:07:54;10.95;;;2.50;;
70312;SDS011;57723;51.698;5.344;2023-10-13T05:10:40;6.68;;;2.80;;
70312;SDS011;57723;51.698;5.344;2023-10-13T05:13:25;7.30;;;3.07;;
70312;SDS011;57723;51.698;5.344;2023-10-13T05:16:08;4.95;;;3.47;;
70312;SDS011;57723;51.698;5.344;2023-10-13T05:18:52;9.38;;;4.50;;
70312;SDS011;57723;51.698;5.344;2023-10-13T05:21:36;7.85;;;4.90;;
70312;SDS011;57723;51.698;5.344;2023-10-13T05:24:20;8.63;;;5.00;;
70312;SDS011;57723;51.698;5.344;2023-10-13T05:27:05;7.30;;;5.27;;
70312;SDS011;57723;51.698;5.344;2023-10-13T05:29:49;7.20;;;2.78;;
70312;SDS011;57723;51.698;5.344;2023-10-13T05:32:33;5.68;;;1.90;;
70312;SDS011;57723;51.698;5.344;2023-10-13T05:35:19;5.68;;;2.17;;
70312;SDS011;57723;51.698;5.344;2023-10-13T05:38:03;5.60;;;2.30;;
70312;SDS011;57723;51.698;5.344;2023-10-13T05:40:57;7.03;;;6.10;;
70312;SDS011;57723;51.698;5.344;2023-10-13T05:43:41;4.70;;;2.33;;
70312;SDS011;57723;51.698;5.344;2023-10-13T05:46:25;4.70;;;2.13;;
70312;SDS011;57723;51.698;5.344;2023-10-13T05:48:50;5.33;;;1.93;;
70312;SDS011;57723;51.698;5.344;2023-10-13T05:51:25;4.10;;;2.22;;
70312;SDS011;57723;51.698;5.344;2023-10-13T05:54:32;5.50;;;2.30;;
70312;SDS011;57723;51.698;5.344;2023-10-13T05:57:16;6.70;;;2.30;;
70312;SDS011;57723;51.698;5.344;2023-10-13T06:00:00;5.60;;;2.10;;
70312;SDS011;57723;51.698;5.344;2023-10-13T06:02:44;5.50;;;2.13;;
70312;SDS011;57723;51.698;5.344;2023-10-13T06:09:03;5.55;;;1.85;;
70312;SDS011;57723;51.698;5.344;2023-10-13T06:11:47;7.10;;;2.20;;
70312;SDS011;57723;51.698;5.344;2023-10-13T06:14:31;5.38;;;1.80;;
70312;SDS011;57723;51.698;5.344;2023-10-13T06:17:15;4.20;;;2.00;;
70312;SDS011;57723;51.698;5.344;2023-10-13T06:19:59;5.25;;;1.90;;
70312;SDS011;57723;51.698;5.344;2023-10-13T06:22:43;5.10;;;2.00;;
70312;SDS011;57723;51.698;5.344;2023-10-13T06:25:35;5.93;;;1.80;;
70312;SDS011;57723;51.698;5.344;2023-10-13T06:28:20;4.10;;;2.00;;
70312;SDS011;57723;51.698;5.344;2023-10-13T06:31:04;4.68;;;1.92;;
70312;SDS011;57723;51.698;5.344;2023-10-13T06:33:32;4.63;;;1.83;;
70312;SDS011;57723;51.698;5.344;2023-10-13T06:36:01;6.03;;;2.00;;
70312;SDS011;57723;51.698;5.344;2023-10-13T06:38:27;5.90;;;2.07;;
70312;SDS011;57723;51.698;5.344;2023-10-13T06:41:01;4.93;;;1.95;;
70312;SDS011;57723;51.698;5.344;2023-10-13T06:43:26;3.30;;;2.10;;
70312;SDS011;57723;51.698;5.344;2023-10-13T06:45:57;7.28;;;1.98;;
70312;SDS011;57723;51.698;5.344;2023-10-13T06:48:25;4.15;;;2.10;;
70312;SDS011;57723;51.698;5.344;2023-10-13T06:50:52;4.75;;;2.05;;
70312;SDS011;57723;51.698;5.344;2023-10-13T06:53:18;4.50;;;1.90;;
70312;SDS011;57723;51.698;5.344;2023-10-13T06:55:43;6.00;;;2.08;;
70312;SDS011;57723;51.698;5.344;2023-10-13T06:58:12;4.45;;;2.25;;
70312;SDS011;57723;51.698;5.344;2023-10-13T07:00:38;6.40;;;2.00;;
70312;SDS011;57723;51.698;5.344;2023-10-13T07:03:06;4.53;;;2.20;;
70312;SDS011;57723;51.698;5.344;2023-10-13T07:05:40;7.95;;;2.53;;
70312;SDS011;57723;51.698;5.344;2023-10-13T07:08:06;7.18;;;2.20;;
70312;SDS011;57723;51.698;5.344;2023-10-13T07:10:32;6.13;;;2.37;;
70312;SDS011;57723;51.698;5.344;2023-10-13T07:13:19;3.92;;;2.20;;
70312;SDS011;57723;51.698;5.344;2023-10-13T07:15:47;7.15;;;2.03;;
70312;SDS011;57723;51.698;5.344;2023-10-13T07:18:15;5.13;;;1.93;;
70312;SDS011;57723;51.698;5.344;2023-10-13T07:20:48;3.83;;;2.00;;
70312;SDS011;57723;51.698;5.344;2023-10-13T07:23:14;5.47;;;2.20;;
70312;SDS011;57723;51.698;5.344;2023-10-13T07:25:51;8.75;;;2.50;;
70312;SDS011;57723;51.698;5.344;2023-10-13T07:28:18;4.97;;;2.27;;
70312;SDS011;57723;51.698;5.344;2023-10-13T07:30:43;6.63;;;2.22;;
70312;SDS011;57723;51.698;5.344;2023-10-13T07:33:15;7.33;;;2.53;;
70312;SDS011;57723;51.698;5.344;2023-10-13T07:35:45;8.55;;;2.70;;
70312;SDS011;57723;51.698;5.344;2023-10-13T07:38:12;5.45;;;2.20;;
70312;SDS011;57723;51.698;5.344;2023-10-13T07:40:38;6.82;;;2.20;;
70312;SDS011;57723;51.698;5.344;2023-10-13T07:43:03;4.83;;;2.00;;
70312;SDS011;57723;51.698;5.344;2023-10-13T07:45:35;5.30;;;2.30;;
70312;SDS011;57723;51.698;5.344;2023-10-13T07:48:11;5.73;;;2.10;;
70312;SDS011;57723;51.698;5.344;2023-10-13T07:50:58;5.22;;;2.08;;
70312;SDS011;57723;51.698;5.344;2023-10-13T07:53:26;4.65;;;2.20;;
70312;SDS011;57723;51.698;5.344;2023-10-13T07:55:59;5.82;;;2.40;;
70312;SDS011;57723;51.698;5.344;2023-10-13T07:58:28;5.28;;;2.50;;
70312;SDS011;57723;51.698;5.344;2023-10-13T08:00:56;6.93;;;2.00;;
70312;SDS011;57723;51.698;5.344;2023-10-13T08:03:25;5.53;;;2.22;;
70312;SDS011;57723;51.698;5.344;2023-10-13T08:06:09;6.20;;;2.40;;
70312;SDS011;57723;51.698;5.344;2023-10-13T08:08:34;5.93;;;2.00;;
70312;SDS011;57723;51.698;5.344;2023-10-13T08:11:06;4.72;;;1.95;;
70312;SDS011;57723;51.698;5.344;2023-10-13T08:13:54;5.75;;;2.30;;
70312;SDS011;57723;51.698;5.344;2023-10-13T08:16:28;4.95;;;2.35;;
70312;SDS011;57723;51.698;5.344;2023-10-13T08:19:15;7.53;;;2.40;;
70312;SDS011;57723;51.698;5.344;2023-10-13T08:21:42;7.47;;;2.50;;
70312;SDS011;57723;51.698;5.344;2023-10-13T08:24:17;9.75;;;3.20;;
70312;SDS011;57723;51.698;5.344;2023-10-13T08:26:53;7.60;;;2.42;;
70312;SDS011;57723;51.698;5.344;2023-10-13T08:29:37;6.63;;;2.67;;
70312;SDS011;57723;51.698;5.344;2023-10-13T08:32:24;6.68;;;2.30;;
70312;SDS011;57723;51.698;5.344;2023-10-13T08:34:52;7.90;;;2.40;;
70312;SDS011;57723;51.698;5.344;2023-10-13T08:37:18;7.13;;;2.55;;
70312;SDS011;57723;51.698;5.344;2023-10-13T08:39:46;6.55;;;2.38;;
70312;SDS011;57723;51.698;5.344;2023-10-13T08:42:51;5.67;;;2.07;;
70312;SDS011;57723;51.698;5.344;2023-10-13T08:45:39;6.40;;;2.55;;
70312;SDS011;57723;51.698;5.344;2023-10-13T08:48:09;9.55;;;2.42;;
70312;SDS011;57723;51.698;5.344;2023-10-13T08:53:23;10.93;;;2.70;;
70312;SDS011;57723;51.698;5.344;2023-10-13T08:56:05;9.70;;;2.40;;
70312;SDS011;57723;51.698;5.344;2023-10-13T09:01:37;9.95;;;2.50;;
70312;SDS011;57723;51.698;5.344;2023-10-13T09:04:35;5.47;;;2.42;;
70312;SDS011;57723;51.698;5.344;2023-10-13T09:07:03;6.30;;;2.30;;
70312;SDS011;57723;51.698;5.344;2023-10-13T09:12:22;7.15;;;3.08;;
70312;SDS011;57723;51.698;5.344;2023-10-13T09:14:51;8.05;;;3.05;;
70312;SDS011;57723;51.698;5.344;2023-10-13T09:17:25;9.20;;;2.67;;
70312;SDS011;57723;51.698;5.344;2023-10-13T09:20:00;8.60;;;3.30;;
70312;SDS011;57723;51.698;5.344;2023-10-13T09:22:46;6.83;;;2.50;;
70312;SDS011;57723;51.698;5.344;2023-10-13T09:25:37;5.43;;;2.60;;
70312;SDS011;57723;51.698;5.344;2023-10-13T09:28:11;5.90;;;2.42;;
70312;SDS011;57723;51.698;5.344;2023-10-13T09:30:43;9.45;;;2.72;;
70312;SDS011;57723;51.698;5.344;2023-10-13T09:33:11;6.47;;;2.72;;
70312;SDS011;57723;51.698;5.344;2023-10-13T09:35:46;11.43;;;2.67;;
70312;SDS011;57723;51.698;5.344;2023-10-13T09:38:16;5.53;;;2.60;;
70312;SDS011;57723;51.698;5.344;2023-10-13T09:40:44;7.60;;;2.83;;
70312;SDS011;57723;51.698;5.344;2023-10-13T09:43:23;7.57;;;2.80;;
70312;SDS011;57723;51.698;5.344;2023-10-13T09:45:50;6.32;;;2.40;;
70312;SDS011;57723;51.698;5.344;2023-10-13T09:48:31;6.15;;;2.90;;
70312;SDS011;57723;51.698;5.344;2023-10-13T09:50:58;5.30;;;2.50;;
70312;SDS011;57723;51.698;5.344;2023-10-13T09:53:24;4.88;;;2.35;;
70312;SDS011;57723;51.698;5.344;2023-10-13T09:55:58;11.23;;;2.70;;
70312;SDS011;57723;51.698;5.344;2023-10-13T09:58:31;7.57;;;2.67;;
70312;SDS011;57723;51.698;5.344;2023-10-13T10:01:06;7.88;;;2.70;;
70312;SDS011;57723;51.698;5.344;2023-10-13T10:03:48;4.78;;;2.58;;
70312;SDS011;57723;51.698;5.344;2023-10-13T10:06:23;5.97;;;2.60;;
70312;SDS011;57723;51.698;5.344;2023-10-13T10:09:14;7.27;;;2.80;;
70312;SDS011;57723;51.698;5.344;2023-10-13T10:11:55;8.25;;;3.03;;
70312;SDS011;57723;51.698;5.344;2023-10-13T10:14:35;7.07;;;2.40;;
70312;SDS011;57723;51.698;5.344;2023-10-13T10:17:08;9.38;;;2.80;;
70312;SDS011;57723;51.698;5.344;2023-10-13T10:19:50;6.78;;;2.95;;
70312;SDS011;57723;51.698;5.344;2023-10-13T10:22:28;7.67;;;2.90;;
70312;SDS011;57723;51.698;5.344;2023-10-13T10:25:14;10.52;;;2.80;;
70312;SDS011;57723;51.698;5.344;2023-10-13T10:30:37;8.48;;;2.90;;
70312;SDS011;57723;51.698;5.344;2023-10-13T10:33:07;8.88;;;3.10;;
70312;SDS011;57723;51.698;5.344;2023-10-13T10:35:42;5.40;;;2.47;;
70312;SDS011;57723;51.698;5.344;2023-10-13T10:43:34;9.60;;;2.80;;
70312;SDS011;57723;51.698;5.344;2023-10-13T10:46:18;8.15;;;3.03;;
70312;SDS011;57723;51.698;5.344;2023-10-13T10:49:03;13.83;;;2.90;;
70312;SDS011;57723;51.698;5.344;2023-10-13T10:51:30;6.55;;;2.80;;
70312;SDS011;57723;51.698;5.344;2023-10-13T10:53:57;11.23;;;3.00;;
70312;SDS011;57723;51.698;5.344;2023-10-13T10:56:31;7.72;;;2.60;;
70312;SDS011;57723;51.698;5.344;2023-10-13T10:59:00;9.77;;;2.85;;
70312;SDS011;57723;51.698;5.344;2023-10-13T11:01:26;6.57;;;2.90;;
70312;SDS011;57723;51.698;5.344;2023-10-13T11:06:47;9.23;;;3.20;;
70312;SDS011;57723;51.698;5.344;2023-10-13T11:09:22;9.05;;;3.13;;
70312;SDS011;57723;51.698;5.344;2023-10-13T11:11:51;7.82;;;3.17;;
70312;SDS011;57723;51.698;5.344;2023-10-13T11:14:30;8.48;;;3.42;;
70312;SDS011;57723;51.698;5.344;2023-10-13T11:16:56;6.47;;;3.00;;
70312;SDS011;57723;51.698;5.344;2023-10-13T11:19:45;10.38;;;2.95;;
70312;SDS011;57723;51.698;5.344;2023-10-13T11:22:15;10.20;;;3.85;;
70312;SDS011;57723;51.698;5.344;2023-10-13T11:25:00;11.75;;;5.70;;
70312;SDS011;57723;51.698;5.344;2023-10-13T11:27:42;12.68;;;7.20;;
70312;SDS011;57723;51.698;5.344;2023-10-13T11:30:16;12.17;;;6.73;;
70312;SDS011;57723;51.698;5.344;2023-10-13T11:33:01;12.30;;;6.88;;
70312;SDS011;57723;51.698;5.344;2023-10-13T11:35:33;10.52;;;5.45;;
70312;SDS011;57723;51.698;5.344;2023-10-13T11:38:17;14.63;;;4.82;;
70312;SDS011;57723;51.698;5.344;2023-10-13T11:41:05;7.70;;;4.10;;
70312;SDS011;57723;51.698;5.344;2023-10-13T11:46:08;12.60;;;3.97;;
70312;SDS011;57723;51.698;5.344;2023-10-13T11:48:43;7.90;;;4.30;;
70312;SDS011;57723;51.698;5.344;2023-10-13T11:51:09;8.00;;;3.63;;
70312;SDS011;57723;51.698;5.344;2023-10-13T11:53:42;10.65;;;3.67;;
70312;SDS011;57723;51.698;5.344;2023-10-13T11:56:08;9.97;;;4.27;;
70312;SDS011;57723;51.698;5.344;2023-10-13T11:58:56;8.27;;;3.97;;
70312;SDS011;57723;51.698;5.344;2023-10-13T12:01:26;10.77;;;3.83;;
70312;SDS011;57723;51.698;5.344;2023-10-13T12:04:11;12.93;;;4.00;;
70312;SDS011;57723;51.698;5.344;2023-10-13T12:07:15;10.40;;;3.78;;
70312;SDS011;57723;51.698;5.344;2023-10-13T12:10:02;9.27;;;3.65;;
70312;SDS011;57723;51.698;5.344;2023-10-13T12:12:30;10.93;;;3.78;;
70312;SDS011;57723;51.698;5.344;2023-10-13T12:14:57;8.25;;;3.80;;
70312;SDS011;57723;51.698;5.344;2023-10-13T12:17:28;9.70;;;4.00;;
70312;SDS011;57723;51.698;5.344;2023-10-13T12:19:59;11.82;;;3.88;;
70312;SDS011;57723;51.698;5.344;2023-10-13T12:22:30;12.00;;;3.92;;
70312;SDS011;57723;51.698;5.344;2023-10-13T12:25:05;6.67;;;3.50;;
70312;SDS011;57723;51.698;5.344;2023-10-13T12:27:45;11.73;;;3.78;;
70312;SDS011;57723;51.698;5.344;2023-10-13T12:30:13;9.70;;;3.50;;
70312;SDS011;57723;51.698;5.344;2023-10-13T12:32:42;7.55;;;3.30;;
70312;SDS011;57723;51.698;5.344;2023-10-13T12:35:19;9.73;;;3.70;;
70312;SDS011;57723;51.698;5.344;2023-10-13T12:38:00;9.45;;;3.67;;
70312;SDS011;57723;51.698;5.344;2023-10-13T12:40:30;7.95;;;3.63;;
70312;SDS011;57723;51.698;5.344;2023-10-13T12:43:14;7.88;;;3.33;;
70312;SDS011;57723;51.698;5.344;2023-10-13T12:45:57;12.98;;;4.10;;
70312;SDS011;57723;51.698;5.344;2023-10-13T12:48:54;7.47;;;3.60;;
70312;SDS011;57723;51.698;5.344;2023-10-13T12:51:38;11.65;;;4.40;;
70312;SDS011;57723;51.698;5.344;2023-10-13T12:54:03;9.43;;;3.97;;
70312;SDS011;57723;51.698;5.344;2023-10-13T12:56:43;7.03;;;3.50;;
70312;SDS011;57723;51.698;5.344;2023-10-13T12:59:09;8.77;;;3.60;;
70312;SDS011;57723;51.698;5.344;2023-10-13T13:01:38;9.77;;;3.63;;
70312;SDS011;57723;51.698;5.344;2023-10-13T13:04:07;8.43;;;3.33;;
70312;SDS011;57723;51.698;5.344;2023-10-13T13:06:36;8.70;;;3.20;;
70312;SDS011;57723;51.698;5.344;2023-10-13T13:09:04;6.45;;;3.42;;
70312;SDS011;57723;51.698;5.344;2023-10-13T13:11:33;8.27;;;3.42;;
70312;SDS011;57723;51.698;5.344;2023-10-13T13:14:04;10.82;;;3.65;;
70312;SDS011;57723;51.698;5.344;2023-10-13T13:16:35;7.93;;;3.27;;
70312;SDS011;57723;51.698;5.344;2023-10-13T13:19:04;10.50;;;3.42;;
70312;SDS011;57723;51.698;5.344;2023-10-13T13:21:38;8.98;;;3.63;;
70312;SDS011;57723;51.698;5.344;2023-10-13T13:24:05;9.35;;;3.20;;
70312;SDS011;57723;51.698;5.344;2023-10-13T13:26:36;9.02;;;3.40;;
70312;SDS011;57723;51.698;5.344;2023-10-13T13:29:01;7.83;;;3.07;;
70312;SDS011;57723;51.698;5.344;2023-10-13T13:31:29;10.32;;;4.18;;
70312;SDS011;57723;51.698;5.344;2023-10-13T13:33:57;7.07;;;3.50;;
70312;SDS011;57723;51.698;5.344;2023-10-13T13:36:23;9.15;;;3.22;;
70312;SDS011;57723;51.698;5.344;2023-10-13T13:38:49;11.40;;;3.40;;
70312;SDS011;57723;51.698;5.344;2023-10-13T13:41:17;10.65;;;3.33;;
70312;SDS011;57723;51.698;5.344;2023-10-13T13:43:43;8.35;;;3.00;;
70312;SDS011;57723;51.698;5.344;2023-10-13T13:46:24;8.53;;;3.30;;
70312;SDS011;57723;51.698;5.344;2023-10-13T13:48:58;9.02;;;3.10;;
70312;SDS011;57723;51.698;5.344;2023-10-13T13:51:26;9.32;;;3.38;;
70312;SDS011;57723;51.698;5.344;2023-10-13T13:53:57;11.85;;;3.38;;
70312;SDS011;57723;51.698;5.344;2023-10-13T13:56:23;13.02;;;3.20;;
70312;SDS011;57723;51.698;5.344;2023-10-13T13:58:53;10.37;;;3.00;;
70312;SDS011;57723;51.698;5.344;2023-10-13T14:01:19;7.95;;;3.05;;
70312;SDS011;57723;51.698;5.344;2023-10-13T14:03:49;8.25;;;3.10;;
70312;SDS011;57723;51.698;5.344;2023-10-13T14:06:19;6.70;;;2.90;;
70312;SDS011;57723;51.698;5.344;2023-10-13T14:09:01;8.20;;;3.07;;
70312;SDS011;57723;51.698;5.344;2023-10-13T14:11:45;8.10;;;2.97;;
70312;SDS011;57723;51.698;5.344;2023-10-13T14:14:29;7.70;;;3.13;;
70312;SDS011;57723;51.698;5.344;2023-10-13T14:16:58;10.15;;;3.53;;
70312;SDS011;57723;51.698;5.344;2023-10-13T14:19:33;10.80;;;3.40;;
70312;SDS011;57723;51.698;5.344;2023-10-13T14:21:59;8.33;;;3.00;;
70312;SDS011;57723;51.698;5.344;2023-10-13T14:24:31;9.32;;;3.55;;
70312;SDS011;57723;51.698;5.344;2023-10-13T14:27:06;8.35;;;3.10;;
70312;SDS011;57723;51.698;5.344;2023-10-13T14:29:39;10.32;;;3.15;;
70312;SDS011;57723;51.698;5.344;2023-10-13T14:32:14;8.80;;;2.80;;
70312;SDS011;57723;51.698;5.344;2023-10-13T14:34:43;8.43;;;3.10;;
70312;SDS011;57723;51.698;5.344;2023-10-13T14:37:09;7.30;;;3.00;;
70312;SDS011;57723;51.698;5.344;2023-10-13T14:39:37;9.70;;;2.88;;
70312;SDS011;57723;51.698;5.344;2023-10-13T14:42:06;6.63;;;2.70;;
70312;SDS011;57723;51.698;5.344;2023-10-13T14:44:55;8.82;;;2.95;;
70312;SDS011;57723;51.698;5.344;2023-10-13T14:47:28;11.82;;;3.22;;
70312;SDS011;57723;51.698;5.344;2023-10-13T14:49:54;6.27;;;2.63;;
70312;SDS011;57723;51.698;5.344;2023-10-13T14:52:28;10.13;;;3.35;;
70312;SDS011;57723;51.698;5.344;2023-10-13T14:54:56;7.60;;;2.78;;
70312;SDS011;57723;51.698;5.344;2023-10-13T14:57:22;8.27;;;3.10;;
70312;SDS011;57723;51.698;5.344;2023-10-13T14:59:55;8.15;;;3.22;;
70312;SDS011;57723;51.698;5.344;2023-10-13T15:02:22;10.07;;;3.13;;
70312;SDS011;57723;51.698;5.344;2023-10-13T15:04:51;6.70;;;3.03;;
70312;SDS011;57723;51.698;5.344;2023-10-13T15:07:16;6.78;;;3.00;;
70312;SDS011;57723;51.698;5.344;2023-10-13T15:09:51;6.03;;;3.03;;
70312;SDS011;57723;51.698;5.344;2023-10-13T15:12:17;8.25;;;3.00;;
70312;SDS011;57723;51.698;5.344;2023-10-13T15:14:49;7.28;;;2.60;;
70312;SDS011;57723;51.698;5.344;2023-10-13T15:17:15;10.20;;;3.30;;
70312;SDS011;57723;51.698;5.344;2023-10-13T15:19:41;5.72;;;2.65;;
70312;SDS011;57723;51.698;5.344;2023-10-13T15:22:13;7.50;;;2.77;;
70312;SDS011;57723;51.698;5.344;2023-10-13T15:24:46;5.82;;;2.60;;
70312;SDS011;57723;51.698;5.344;2023-10-13T15:27:26;10.30;;;3.33;;
70312;SDS011;57723;51.698;5.344;2023-10-13T15:29:54;7.13;;;3.35;;
70312;SDS011;57723;51.698;5.344;2023-10-13T15:32:29;9.43;;;3.00;;
70312;SDS011;57723;51.698;5.344;2023-10-13T15:35:07;9.60;;;3.13;;
70312;SDS011;57723;51.698;5.344;2023-10-13T15:37:38;8.60;;;2.80;;
70312;SDS011;57723;51.698;5.344;2023-10-13T15:40:06;7.93;;;3.35;;
70312;SDS011;57723;51.698;5.344;2023-10-13T15:42:38;7.90;;;3.22;;
70312;SDS011;57723;51.698;5.344;2023-10-13T15:45:06;7.05;;;2.88;;
70312;SDS011;57723;51.698;5.344;2023-10-13T15:47:44;8.67;;;3.10;;
70312;SDS011;57723;51.698;5.344;2023-10-13T15:50:16;7.22;;;2.90;;